METAR Data
IDs: Format: Raw Decoded Include TAF

Data at: 2201 UTC 10 May 2021

KAKO 102153Z AUTO 10015G23KT 9SM -RA BKN006 OVC015 03/02 A3012 RMK AO2 SLP205 P0006 T00330017
KAKO 102139Z AUTO 10016KT 7SM -RA BKN006 OVC015 03/01 A3012 RMK AO2 P0006 T00280011
KAKO 102124Z AUTO 10017KT 3SM RA BR SCT008 OVC016 03/01 A3012 RMK AO2 P0004 T00280011
KAKO 102108Z AUTO 10016KT 4SM RA BR BKN008 OVC019 03/01 A3013 RMK AO2 P0001 T00330011
KAKO 102053Z AUTO 10014G23KT 4SM -RA BR SCT010 OVC019 03/01 A3013 RMK AO2 SLP207 P0003 60011 T00330011 55004
KAKO 101953Z AUTO 10019KT 7SM -RA SCT009 OVC021 03/02 A3011 RMK AO2 PK WND 11028/1911 SLP202 P0002 T00330017
KAKO 101935Z AUTO 11017KT 7SM -RA FEW009 BKN025 OVC036 03/01 A3012 RMK AO2 PK WND 11028/1911 P0001 T00330011
KAKO 101923Z AUTO 11019G27KT 6SM -RA BR FEW009 OVC032 03/01 A3012 RMK AO2 PK WND 11028/1911 P0001 T00330011
KAKO 101915Z AUTO 11018G28KT 8SM -RA SCT009 BKN028 OVC038 03/01 A3011 RMK AO2 PK WND 11028/1911 P0001 T00330011
KAKO 101853Z AUTO 12018G26KT 7SM -RA SCT010 BKN020 OVC028 03/01 A3012 RMK AO2 PK WND 13029/1755 SLP205 P0006 T00330011
KAKO 101826Z AUTO 14016G26KT 5SM -RA BR OVC014 03/01 A3013 RMK AO2 PK WND 13029/1755 P0004 T00330011
KAKO 101753Z AUTO 13020G28KT 5SM -RA BR SCT010 OVC018 03/01 A3014 RMK AO2 PK WND 14028/1750 SLP212 P0003 60007 T00330011 10044 20028 53002
KAKO 101748Z AUTO 14018G28KT 6SM -RA BR SCT010 SCT013 OVC018 03/01 A3014 RMK AO2 PK WND 15028/1744 P0003
KAKO 101653Z AUTO 14017G24KT 4SM -RA BR BKN009 BKN014 OVC022 03/01 A3014 RMK AO2 PK WND 14026/1606 SLP210 P0004 T00330011
KAKO 101553Z AUTO 15015G24KT 7SM -RA BKN010 OVC026 03/01 A3013 RMK AO2 PK WND 15026/1529 SLP209 P0000 T00330011
KAKO 101551Z AUTO 15017G24KT 7SM -RA BKN010 OVC026 03/01 A3013 RMK AO2 PK WND 15026/1529 P0000
KAKO 101535Z AUTO 16016G26KT 7SM -RA BKN008 BKN028 OVC035 03/01 A3014 RMK AO2 PK WND 15026/1529 P0000 T00330011
KAKO 101453Z AUTO 17019G26KT 10SM -RA SCT009 OVC040 03/01 A3013 RMK AO2 PK WND 16029/1430 RAB30 SLP206 P0000 60000 T00330011 51009
KAKO 101433Z AUTO 17015G29KT 10SM -RA BKN009 BKN050 OVC060 03/01 A3013 RMK AO2 PK WND 16029/1430 RAB30 P0000 T00330011
KAKO 101353Z AUTO 16014G23KT 10SM FEW009 BKN032 OVC048 04/02 A3013 RMK AO2 SLP201 T00390017
KAKO 101253Z AUTO 18013KT 10SM OVC060 04/02 A3012 RMK AO2 RAE1154 SLP197 P0000 T00390017
KAKO 101153Z AUTO 20012KT 10SM -RA FEW047 OVC060 04/02 A3010 RMK AO2 SLP189 P0001 60001 70001 T00390017 10056 20033 58002 $
KAKO 101053Z AUTO 15010KT 10SM -RA FEW014 BKN036 OVC047 05/02 A3012 RMK AO2 RAB02 SLP192 P0000 T00500022 $
KAKO 100953Z AUTO 13006KT 10SM BKN043 OVC055 06/03 A3011 RMK AO2 RAB41E50 SLP191 P0000 T00560028 $
KAKO 100853Z AUTO 15006KT 10SM BKN060 OVC075 06/02 A3011 RMK AO2 SLP189 T00560017 58002 $
KAKO 100753Z AUTO 15005KT 10SM OVC065 06/02 A3010 RMK AO2 SLP188 T00560017 $
KAKO 100653Z AUTO 17006KT 10SM OVC060 05/02 A3012 RMK AO2 SLP192 T00500022 401000022 $
KAKO 100553Z AUTO 15007KT 10SM SCT120 05/02 A3011 RMK AO2 SLP191 T00500022 10089 20044 50005 $
KAKO 100453Z AUTO 14007KT 10SM FEW060 OVC085 06/02 A3012 RMK AO2 SLP197 T00560017 $
KAKO 100353Z AUTO 16006KT 10SM FEW070 BKN110 06/02 A3012 RMK AO2 SLP197 T00560017 $
KAKO 100253Z AUTO 17010KT 10SM 06/01 A3010 RMK AO2 SLP191 T00610011 $
KAKO 100153Z AUTO 18011KT 10SM OVC070 08/01 A3008 RMK AO2 SLP186 T00780011 $
KAKO 100053Z AUTO 18009KT 10SM OVC070 08/02 A3008 RMK AO2 SLP184 T00830017 $
KAKO 092353Z AUTO 18009KT 10SM BKN070 09/02 A3007 RMK AO2 SLP180 T00890017 10100 20083 55002 $
KAKO 092253Z AUTO 17010KT 10SM OVC080 09/02 A3006 RMK AO2 SLP177 T00890017 $
KAKO 092153Z AUTO 16010KT 10SM FEW110 09/02 A3006 RMK AO2 SLP178 T00890017 $
KAKO 092053Z AUTO 18009KT 10SM FEW046 OVC095 08/01 A3007 RMK AO2 SLP183 T00830011 56009 $
KAKO 091953Z AUTO 00000KT 10SM FEW040 BKN047 OVC085 09/M01 A3008 RMK AO2 SLP183 T00891006 $
KAKO 091853Z AUTO 09006KT 10SM FEW037 BKN110 09/00 A3009 RMK AO2 SLP182 T00890000 $
KAKO 091753Z AUTO VRB03KT 10SM OVC090 09/M01 A3011 RMK AO2 SLP188 T00891006 10089 20028 58005 $
KAKO 091653Z AUTO VRB03KT 10SM SCT028 BKN100 08/01 A3012 RMK AO2 SLP190 T00780006 $
KAKO 091553Z AUTO 02008KT 10SM BKN023 BKN028 OVC100 07/01 A3011 RMK AO2 SLP189 T00670006 $
KAKO 091453Z AUTO 04009KT 10SM OVC017 05/01 A3012 RMK AO2 SLP192 T00500006 51016 $
KAKO 091430Z AUTO 02008KT 10SM BKN016 BKN085 OVC100 04/00 A3011 RMK AO2 T00440000 $
KAKO 091353Z AUTO 03012KT 10SM FEW090 OVC110 04/00 A3010 RMK AO2 SLP185 T00390000 $
KAKO 091334Z AUTO 02010KT 10SM SCT017 OVC100 03/00 A3010 RMK AO2 T00330000 $
KAKO 091253Z AUTO 03011KT 10SM OVC016 03/01 A3009 RMK AO2 SLP180 T00280006 $
KAKO 091231Z AUTO 03012KT 10SM BKN018 OVC090 03/01 A3009 RMK AO2 T00280006 $
KAKO 091153Z AUTO 02013KT 10SM OVC085 03/01 A3007 RMK AO2 SLP173 70035 T00280006 10056 20022 53009 $
KAKO 091053Z AUTO 01007KT 10SM OVC075 03/01 A3004 RMK AO2 SLP160 T00280006 $